πŸ‡³πŸ‡± VeloStatistics

πŸ‘€ Oleksandr Martynenko

NationaliteitUKR
Geboortedatum1989-07-22
Overlijdensdatum -
Lengte / Gewicht?? cm / ?? kg
Profzeges0
Profzeges 20260
Wedstrijddagen97

🚴 Ploegenhistorie

Geen ploegen gevonden.

πŸ† Resultaten (59)

Datum Pos Wedstrijd UCI Ploeg
2013-09-30 57 2013 | Tour of China II, CHN (30.9) 2.1 -
2013-09-27 17 2013 | Tour of China II, CHN | Rit 4 (27.9) 2.1 -
2013-08-21 7 2013 | Baltic Chain Tour | Rit 3 (21.8) 2.2 -
2013-06-09 12 2013 | Jurmala G.P., LAT (9.6) 1.1 -
2013-06-08 20 2013 | Riga G.P., LAT (8.6) 1.1 -
2013-05-24 6 2013 | Race Horizon Park I, UKR (24.5) 1.2 -
2013-05-09 6 2013 | Five Rings of Moscow, RUS (9.5) 2.2 -
2013-05-09 5 2013 | Five Rings of Moscow, RUS | Rit 4 (9.5) 2.2 -
2013-05-08 2 2013 | Five Rings of Moscow, RUS | Rit 3 (8.5) 2.2 -
2013-05-07 8 2013 | Five Rings of Moscow, RUS | Rit 2 (7.5) 2.2 -
2013-05-06 5 2013 | Five Rings of Moscow, RUS | Rit 1 (6.5) 2.2 -
2013-05-03 3 2013 | G.P. Moscow, RUS (3.5) 1.2 -
2013-05-02 10 2013 | Memorial Oleg Dyachenko, RUS (2.5) 1.2 -
2013-04-19 3 2013 | G.P. Adygeya, RUS | Rit 3 (19.4) 2.2 -
2013-04-07 6 2013 | G.P. of Sochi, RUS | Rit 5 (7.4) 2.2 -
2012-09-23 61 2012 | Tour of China II, CHN (23.9) 2.1 -
2012-09-23 17 2012 | Tour of China II, CHN | Rit 5 (23.9) 2.1 -
2012-09-20 18 2012 | Tour of China II, CHN | Rit 2 (20.9) 2.1 -
2012-09-18 4 2012 | Tour of China II, CHN | Rit 1 (18.9) 2.1 -
2012-09-13 86 2012 | Tour of China, CHN (13.9) 2.1 -
2012-09-12 12 2012 | Tour of China, CHN | Rit 5 (12.9) 2.1 -
2012-08-18 11 2012 | G.P. Kralovehradeckeho Kraje, CZE (18.8) 1.2 -
2012-07-08 71 2012 | Course de Solidarnosc et des Champions Olympiques, POL (8.7) 2.1 -
2012-06-04 3 2012 | Tour of Romania, ROU | Rit 4 (4.6) 2.2 -
2012-05-27 2 2012 | Race Horizon Park I, UKR (27.5) 1.2 -
2012-05-19 57 2012 | Jurmala G.P., LAT (19.5) 1.2 -
2012-05-16 6 2012 | Azerbaijan Tour, IRI | Rit 6 (16.5) 2.2 -
2012-05-13 8 2012 | Azerbaijan Tour, IRI | Rit 3 (13.5) 2.2 -
2012-05-12 4 2012 | Azerbaijan Tour, IRI | Rit 2 (12.5) 2.2 -
2012-05-06 8 2012 | Five Rings of Moscow, RUS | Rit 2 (6.5) 2.2 -
2012-04-15 5 2012 | G.P. Donetsk, UKR (15.4) 1.2 -
2012-04-05 6 2012 | G.P. of Sochi, RUS | Rit 2 (5.4) 2.2 -
2011-08-13 9 2011 | Tour of Szekerland, ROU | Rit 4 (13.8) 2.2 -
2011-07-07 2 2011 | Sibiu Cycling Tour, ROU | Rit 2 (7.7) 2.2 -
2011-05-22 7 2011 | FBD Insurance RAS, IRL | Rit 1 (22.5) 2.2 -
2011-05-09 14 2011 | Five Rings of Moscow, RUS (9.5) 2.2 -
2011-05-09 5 2011 | Five Rings of Moscow, RUS | Rit 4 (9.5) 2.2 -
2011-05-08 7 2011 | Five Rings of Moscow, RUS | Rit 3 (8.5) 2.2 -
2011-05-06 4 2011 | Five Rings of Moscow, RUS | Rit 1 (6.5) 2.2 -
2011-05-05 8 2011 | Five Rings of Moscow, RUS | Rit 0 (5.5) 2.2 -
2011-05-02 1 2011 | G.P. Moscow, RUS (2.5) 1.2 -
2011-04-30 7 2011 | Mayor Cup, RUS (30.4) 1.2 -
2011-04-24 1 2011 | G.P. Adygeya, RUS | Rit 5 (24.4) 2.2 -
2011-04-22 3 2011 | G.P. Adygeya, RUS | Rit 3 (22.4) 2.2 -
2011-04-21 1 2011 | G.P. Adygeya, RUS | Rit 2 (21.4) 2.2 -
2011-04-08 8 2011 | G.P. of Sochi, RUS | Rit 3 (8.4) 2.2 -
2011-04-07 8 2011 | G.P. of Sochi, RUS | Rit 2 (7.4) 2.2 -
2010-04-10 13 2010 | Ronde van Vlaanderen U23, BEL (10.4) 1.NC -
2010-04-05 26 2010 | Rund um KΓΆln, DUI (5.4) 1.1 -
2009-08-15 10 2009 | Memorial Henryka Lasaka, POL (15.8) 1.2 -